Time;durP1;ratioP1;P1;durP2;ratioP2;P2;SDS_P1;SDS_P2;PMS_P1;PMS_P2;Temp;Humidity;BMP_temperature;BMP_pressure;BME280_temperature;BME280_humidity;BME280_pressure;Samples;Min_cycle;Max_cycle;Signal;HPM_P1;HPM_P2
2022/08/24 00:01:57;;;;;;;;;;;27.60;42.80;;;;;;5093912;28;20372;-60
2022/08/24 00:04:22;;;;;;;;;;;27.60;42.90;;;;;;5092596;28;19919;-60
2022/08/24 00:06:48;;;;;;;;;;;27.60;42.80;;;;;;5078461;28;19912;-61
2022/08/24 00:09:14;;;;;;;;;;;27.70;42.80;;;;;;5075174;28;19918;-60
2022/08/24 00:11:39;;;;;;;;;;;27.70;42.70;;;;;;5076144;28;20032;-60
2022/08/24 00:14:05;;;;;;;;;;;27.70;42.70;;;;;;5084085;28;20007;-60
2022/08/24 00:16:31;;;;;;;;;;;27.70;42.70;;;;;;5076757;28;19948;-60
2022/08/24 00:18:56;;;;;;;;;;;27.70;42.50;;;;;;5075021;28;19923;-60
2022/08/24 00:21:22;;;;;;;;;;;27.70;42.60;;;;;;5093240;28;19927;-60
2022/08/24 00:23:47;;;;;;;;;;;27.70;42.90;;;;;;5082924;28;19912;-60
2022/08/24 00:26:14;;;;;;;;;;;27.70;42.80;;;;;;5104329;28;20010;-59
2022/08/24 00:28:39;;;;;;;;;;;27.60;42.80;;;;;;5075968;28;19923;-60
2022/08/24 00:31:05;;;;;;;;;;;27.50;42.90;;;;;;5092346;28;19912;-60
2022/08/24 00:33:31;;;;;;;;;;;27.60;43.10;;;;;;5094605;28;19919;-60
2022/08/24 00:35:57;;;;;;;;;;;27.50;43.10;;;;;;5055942;28;20311;-60
2022/08/24 00:38:22;;;;;;;;;;;27.50;43.00;;;;;;5074968;28;19913;-60
2022/08/24 00:40:48;;;;;;;;;;;27.50;43.10;;;;;;5075072;28;19909;-60
2022/08/24 00:43:16;;;;;;;;;;;27.60;43.10;;;;;;5094704;28;19912;-60
2022/08/24 00:46:00;;;;;;;;;;;27.70;43.00;;;;;;5075943;28;19970;-60
2022/08/24 00:48:26;;;;;;;;;;;27.70;43.00;;;;;;5093937;28;20006;-60
2022/08/24 00:50:57;;;;;;;;;;;27.70;42.80;;;;;;5045635;28;20003;-60
2022/08/24 00:53:35;;;;;;;;;;;27.70;43.00;;;;;;5073788;28;19913;-60
2022/08/24 00:56:10;;;;;;;;;;;27.70;43.20;;;;;;5070960;28;20474;-60
2022/08/24 00:58:50;;;;;;;;;;;27.60;43.20;;;;;;5075204;28;19951;-60
2022/08/24 01:01:16;;;;;;;;;;;27.60;43.30;;;;;;5074795;28;20283;-60
2022/08/24 01:03:41;;;;;;;;;;;27.50;43.20;;;;;;5094602;28;19912;-60
2022/08/24 01:06:07;;;;;;;;;;;27.60;43.40;;;;;;5075082;28;19912;-60
2022/08/24 01:08:33;;;;;;;;;;;27.50;43.40;;;;;;5057724;28;19939;-60
2022/08/24 01:11:03;;;;;;;;;;;27.50;43.50;;;;;;5092997;28;19915;-60
2022/08/24 01:13:28;;;;;;;;;;;27.50;43.60;;;;;;5076236;28;19915;-60
2022/08/24 01:15:56;;;;;;;;;;;27.50;43.50;;;;;;5091338;28;20326;-60
2022/08/24 01:21:23;;;;;;;;;;;27.60;43.60;;;;;;5087134;28;19918;-60
2022/08/24 01:23:56;;;;;;;;;;;27.60;43.60;;;;;;5084951;28;20344;-60
2022/08/24 01:26:26;;;;;;;;;;;27.60;43.60;;;;;;5075276;28;19916;-60
2022/08/24 01:28:54;;;;;;;;;;;27.60;43.60;;;;;;5089356;28;19916;-60
2022/08/24 01:31:20;;;;;;;;;;;27.60;43.60;;;;;;5092210;28;19912;-60
2022/08/24 01:33:47;;;;;;;;;;;27.60;43.60;;;;;;5091504;28;19912;-60
2022/08/24 01:36:29;;;;;;;;;;;27.60;43.90;;;;;;5074605;28;20360;-60
2022/08/24 01:38:55;;;;;;;;;;;27.50;43.80;;;;;;5089627;28;19955;-60
2022/08/24 01:41:21;;;;;;;;;;;27.60;44.00;;;;;;5090542;28;19941;-60
2022/08/24 01:43:46;;;;;;;;;;;27.50;44.10;;;;;;5092341;28;20310;-60
2022/08/24 01:46:12;;;;;;;;;;;27.50;44.30;;;;;;5091442;28;20319;-60
2022/08/24 01:48:37;;;;;;;;;;;27.50;44.10;;;;;;5090572;28;19942;-59
2022/08/24 01:51:03;;;;;;;;;;;27.60;44.10;;;;;;5093278;28;19908;-60
2022/08/24 01:53:28;;;;;;;;;;;27.60;43.90;;;;;;5091887;28;20040;-60
2022/08/24 01:55:54;;;;;;;;;;;27.60;43.90;;;;;;5070845;28;19970;-60
2022/08/24 01:58:19;;;;;;;;;;;27.60;43.90;;;;;;5084766;28;19919;-60
2022/08/24 02:00:45;;;;;;;;;;;27.70;44.00;;;;;;5092011;28;19912;-60
2022/08/24 02:03:10;;;;;;;;;;;27.70;44.10;;;;;;5091879;28;19953;-60
2022/08/24 02:05:36;;;;;;;;;;;27.70;44.00;;;;;;5089923;28;19969;-60
2022/08/24 02:08:02;;;;;;;;;;;27.70;44.00;;;;;;5091212;28;20295;-60
2022/08/24 02:10:27;;;;;;;;;;;27.70;44.00;;;;;;5091163;28;19923;-60
2022/08/24 02:12:59;;;;;;;;;;;27.70;44.10;;;;;;5083180;28;19919;-60
2022/08/24 02:15:31;;;;;;;;;;;27.70;44.00;;;;;;5074451;28;19930;-60
2022/08/24 02:17:57;;;;;;;;;;;27.70;43.90;;;;;;5072780;28;20057;-60
2022/08/24 02:20:22;;;;;;;;;;;27.80;44.00;;;;;;5057182;28;19991;-60
2022/08/24 02:22:48;;;;;;;;;;;27.80;44.00;;;;;;5073132;28;20364;-59
2022/08/24 02:25:14;;;;;;;;;;;27.80;43.90;;;;;;5072762;28;19916;-60
2022/08/24 02:27:39;;;;;;;;;;;27.70;44.00;;;;;;5092017;28;19916;-59
2022/08/24 02:30:05;;;;;;;;;;;27.70;44.20;;;;;;5077965;28;19960;-59
2022/08/24 02:32:30;;;;;;;;;;;27.60;44.40;;;;;;5073383;28;19919;-60
2022/08/24 02:34:56;;;;;;;;;;;27.60;44.40;;;;;;5073286;28;19912;-60
2022/08/24 02:37:21;;;;;;;;;;;27.60;44.40;;;;;;5090994;28;19912;-60
2022/08/24 02:39:47;;;;;;;;;;;27.60;44.50;;;;;;5091435;28;19934;-60
2022/08/24 02:42:14;;;;;;;;;;;27.50;44.70;;;;;;5091005;28;19966;-59
2022/08/24 02:44:40;;;;;;;;;;;27.50;44.80;;;;;;5090236;28;19916;-60
2022/08/24 02:47:05;;;;;;;;;;;27.60;44.80;;;;;;5091706;28;19908;-60
2022/08/24 02:49:30;;;;;;;;;;;27.60;44.80;;;;;;5064055;28;19916;-60
2022/08/24 02:51:56;;;;;;;;;;;27.60;44.80;;;;;;5074220;28;19908;-59
2022/08/24 02:54:22;;;;;;;;;;;27.50;44.90;;;;;;5088937;28;20019;-60
2022/08/24 02:56:47;;;;;;;;;;;27.40;45.10;;;;;;5091696;28;19919;-60
2022/08/24 02:59:14;;;;;;;;;;;27.40;45.10;;;;;;5073165;28;19912;-59
2022/08/24 03:01:39;;;;;;;;;;;27.40;45.20;;;;;;5091026;28;19916;-60
2022/08/24 03:04:05;;;;;;;;;;;27.40;45.30;;;;;;5087047;28;20396;-60
2022/08/24 03:06:31;;;;;;;;;;;27.30;45.40;;;;;;5092012;28;20459;-61
2022/08/24 03:08:56;;;;;;;;;;;27.30;45.40;;;;;;5071281;28;20386;-59
2022/08/24 03:11:25;;;;;;;;;;;27.40;45.40;;;;;;5090688;28;19947;-61
2022/08/24 03:13:51;;;;;;;;;;;27.30;45.40;;;;;;5098307;28;19972;-60
2022/08/24 03:16:16;;;;;;;;;;;27.40;45.40;;;;;;5093267;28;20312;-60
2022/08/24 03:18:42;;;;;;;;;;;27.40;45.30;;;;;;5111733;28;19970;-61
2022/08/24 03:21:09;;;;;;;;;;;27.50;45.30;;;;;;5108003;28;19912;-60
2022/08/24 03:23:35;;;;;;;;;;;27.50;45.40;;;;;;5092065;28;20312;-59
2022/08/24 03:26:00;;;;;;;;;;;27.50;45.30;;;;;;5091960;28;20298;-59
2022/08/24 03:28:26;;;;;;;;;;;27.40;45.50;;;;;;5111480;28;19915;-60
2022/08/24 03:30:51;;;;;;;;;;;27.30;45.60;;;;;;5093383;28;19951;-60
2022/08/24 03:33:17;;;;;;;;;;;27.30;45.80;;;;;;5075430;28;20321;-60
2022/08/24 03:35:42;;;;;;;;;;;27.20;45.90;;;;;;5111207;28;19955;-60
2022/08/24 03:38:08;;;;;;;;;;;27.10;46.10;;;;;;5110181;28;19957;-59
2022/08/24 03:40:34;;;;;;;;;;;27.10;46.10;;;;;;5074792;28;19915;-60
2022/08/24 03:42:59;;;;;;;;;;;27.20;46.10;;;;;;5111070;28;19916;-60
2022/08/24 03:45:25;;;;;;;;;;;27.20;46.10;;;;;;5091899;28;20314;-59
2022/08/24 03:47:50;;;;;;;;;;;27.30;46.10;;;;;;5093113;28;19916;-60
2022/08/24 03:50:16;;;;;;;;;;;27.20;45.80;;;;;;5111480;28;19912;-60
2022/08/24 03:52:41;;;;;;;;;;;27.30;46.10;;;;;;5111217;28;19912;-60
2022/08/24 03:55:07;;;;;;;;;;;27.40;46.00;;;;;;5079172;28;19912;-60
2022/08/24 03:57:33;;;;;;;;;;;27.30;45.90;;;;;;5093527;28;20007;-59
2022/08/24 03:59:59;;;;;;;;;;;27.40;45.90;;;;;;5091680;28;20372;-60
2022/08/24 04:02:25;;;;;;;;;;;27.30;46.00;;;;;;5095557;28;19912;-59
2022/08/24 04:04:50;;;;;;;;;;;27.30;45.90;;;;;;5114558;28;19907;-60
2022/08/24 04:07:16;;;;;;;;;;;27.30;46.00;;;;;;5080267;28;19987;-60
2022/08/24 04:09:41;;;;;;;;;;;27.30;46.00;;;;;;5113191;28;19916;-60
2022/08/24 04:12:07;;;;;;;;;;;27.30;46.10;;;;;;5094589;28;19923;-59
2022/08/24 04:14:33;;;;;;;;;;;27.30;46.10;;;;;;5115146;28;20428;-60
2022/08/24 04:16:59;;;;;;;;;;;27.30;46.20;;;;;;5113621;28;19912;-60
2022/08/24 04:19:24;;;;;;;;;;;27.30;46.20;;;;;;5095329;28;19916;-60
2022/08/24 04:21:52;;;;;;;;;;;27.30;46.30;;;;;;5113199;28;21239;-60
2022/08/24 04:24:18;;;;;;;;;;;27.20;46.20;;;;;;5096036;28;19983;-60
2022/08/24 04:26:44;;;;;;;;;;;27.20;46.30;;;;;;5114135;28;19958;-60
2022/08/24 04:29:09;;;;;;;;;;;27.20;46.50;;;;;;5083315;28;20382;-60
2022/08/24 04:31:35;;;;;;;;;;;27.20;46.70;;;;;;5091704;28;20371;-60
2022/08/24 04:34:01;;;;;;;;;;;27.20;46.70;;;;;;5096023;28;19911;-60
2022/08/24 04:36:26;;;;;;;;;;;27.30;46.80;;;;;;5114406;28;20007;-61
2022/08/24 04:38:52;;;;;;;;;;;27.20;46.80;;;;;;5095875;28;19915;-59
2022/08/24 04:41:20;;;;;;;;;;;27.10;46.90;;;;;;5094288;28;20321;-60
2022/08/24 04:43:46;;;;;;;;;;;27.10;47.00;;;;;;5095985;28;19960;-60
2022/08/24 04:46:14;;;;;;;;;;;27.10;47.00;;;;;;5093487;28;20344;-60
2022/08/24 04:48:39;;;;;;;;;;;27.10;47.00;;;;;;5112896;28;19923;-59
2022/08/24 04:51:05;;;;;;;;;;;27.00;47.30;;;;;;5094555;28;19919;-59
2022/08/24 04:53:31;;;;;;;;;;;27.00;47.40;;;;;;5094974;28;19912;-60
2022/08/24 04:55:56;;;;;;;;;;;27.00;47.40;;;;;;5112381;28;20053;-60
2022/08/24 04:58:22;;;;;;;;;;;27.10;47.40;;;;;;5096306;28;20283;-60
2022/08/24 05:00:47;;;;;;;;;;;27.10;47.40;;;;;;5094301;28;19916;-61
2022/08/24 05:03:13;;;;;;;;;;;27.10;47.40;;;;;;5095652;28;19908;-60
2022/08/24 05:05:39;;;;;;;;;;;27.10;47.50;;;;;;5094932;28;20198;-60
2022/08/24 05:08:04;;;;;;;;;;;27.10;47.50;;;;;;5114073;28;20019;-60
2022/08/24 05:10:30;;;;;;;;;;;27.00;47.80;;;;;;5111544;28;19998;-60
2022/08/24 05:12:55;;;;;;;;;;;26.90;48.10;;;;;;5112373;28;19912;-61
2022/08/24 05:15:21;;;;;;;;;;;26.90;48.20;;;;;;5087514;28;19927;-60
2022/08/24 05:17:46;;;;;;;;;;;26.80;48.20;;;;;;5076473;28;19912;-60
2022/08/24 05:20:12;;;;;;;;;;;26.80;48.20;;;;;;5080894;28;19916;-60
2022/08/24 05:22:37;;;;;;;;;;;27.00;47.90;;;;;;5091288;28;19923;-60
2022/08/24 05:25:03;;;;;;;;;;;27.00;48.00;;;;;;5057157;28;20023;-61
2022/08/24 05:27:29;;;;;;;;;;;27.00;48.00;;;;;;5075804;28;19923;-60
2022/08/24 05:29:54;;;;;;;;;;;27.00;48.00;;;;;;5091968;28;19916;-60
2022/08/24 05:32:20;;;;;;;;;;;27.00;48.20;;;;;;5093394;28;19912;-60
2022/08/24 05:34:45;;;;;;;;;;;27.00;48.30;;;;;;5092764;28;20326;-60
2022/08/24 05:37:11;;;;;;;;;;;27.00;48.50;;;;;;5073596;28;20346;-60
2022/08/24 05:39:36;;;;;;;;;;;27.00;48.60;;;;;;5072809;28;19908;-61
2022/08/24 05:42:02;;;;;;;;;;;26.90;48.70;;;;;;5092458;28;19923;-60
2022/08/24 05:44:30;;;;;;;;;;;27.00;48.80;;;;;;5072311;28;19912;-60
2022/08/24 05:46:57;;;;;;;;;;;27.00;48.80;;;;;;5058815;28;19912;-60
2022/08/24 05:49:23;;;;;;;;;;;27.00;48.80;;;;;;5073044;28;20284;-60
2022/08/24 05:51:48;;;;;;;;;;;27.00;49.00;;;;;;5071458;28;20397;-60
2022/08/24 05:54:14;;;;;;;;;;;27.00;49.10;;;;;;5089951;28;19966;-60
2022/08/24 05:56:39;;;;;;;;;;;27.00;49.30;;;;;;5090706;28;20014;-60
2022/08/24 05:59:04;;;;;;;;;;;26.90;49.40;;;;;;5092874;28;19912;-60
2022/08/24 06:01:30;;;;;;;;;;;26.90;49.80;;;;;;5088956;28;19908;-60
2022/08/24 06:03:56;;;;;;;;;;;26.90;49.80;;;;;;5074130;28;19912;-60
2022/08/24 06:06:21;;;;;;;;;;;26.70;50.10;;;;;;5073481;28;20364;-60
2022/08/24 06:08:48;;;;;;;;;;;26.60;50.80;;;;;;5073757;28;20339;-60
2022/08/24 06:11:24;;;;;;;;;;;26.50;51.00;;;;;;5071366;28;20008;-60
2022/08/24 06:13:53;;;;;;;;;;;26.50;51.00;;;;;;5096261;28;19924;-60
2022/08/24 06:16:18;;;;;;;;;;;26.50;51.10;;;;;;5093259;28;19911;-60
2022/08/24 06:18:44;;;;;;;;;;;26.40;51.40;;;;;;5111153;28;19916;-61
2022/08/24 06:21:10;;;;;;;;;;;26.30;51.80;;;;;;5112501;28;19921;-60
2022/08/24 06:23:36;;;;;;;;;;;26.20;52.50;;;;;;5093160;28;19916;-60
2022/08/24 06:28:46;;;;;;;;;;;25.90;53.60;;;;;;5085595;28;20017;-60
2022/08/24 06:31:11;;;;;;;;;;;25.80;54.30;;;;;;5089535;27;19908;-60
2022/08/24 06:33:37;;;;;;;;;;;25.80;54.40;;;;;;5094171;28;19974;-60
2022/08/24 06:36:02;;;;;;;;;;;25.80;54.40;;;;;;5111653;28;19911;-61
2022/08/24 06:38:29;;;;;;;;;;;25.90;54.40;;;;;;5111786;28;19908;-60
2022/08/24 06:40:55;;;;;;;;;;;25.90;54.40;;;;;;5093288;28;19952;-60
2022/08/24 06:43:20;;;;;;;;;;;25.80;54.90;;;;;;5092368;28;19911;-60
2022/08/24 06:45:46;;;;;;;;;;;25.60;55.60;;;;;;5087769;28;19912;-60
2022/08/24 06:48:11;;;;;;;;;;;25.50;56.00;;;;;;5110852;28;19938;-60
2022/08/24 06:50:37;;;;;;;;;;;25.50;56.00;;;;;;5089524;28;20329;-61
2022/08/24 06:53:03;;;;;;;;;;;25.60;55.90;;;;;;5111006;28;19993;-60
2022/08/24 06:55:28;;;;;;;;;;;25.60;56.00;;;;;;5092420;28;19963;-60
2022/08/24 06:57:54;;;;;;;;;;;25.60;56.40;;;;;;5077449;28;19972;-61
2022/08/24 07:00:20;;;;;;;;;;;25.60;56.20;;;;;;5093094;28;19912;-60
2022/08/24 07:02:45;;;;;;;;;;;25.80;55.80;;;;;;5075674;28;19909;-60
2022/08/24 07:05:11;;;;;;;;;;;25.90;55.40;;;;;;5073859;28;19908;-60
2022/08/24 07:07:37;;;;;;;;;;;26.00;55.60;;;;;;5102029;28;20279;-60
2022/08/24 07:10:04;;;;;;;;;;;25.90;55.90;;;;;;5077903;28;19912;-60
2022/08/24 07:12:29;;;;;;;;;;;25.90;55.80;;;;;;5086157;28;19923;-60
2022/08/24 07:14:54;;;;;;;;;;;25.80;56.30;;;;;;5089525;28;20308;-60
2022/08/24 07:17:20;;;;;;;;;;;25.70;56.60;;;;;;5099927;28;19993;-61
2022/08/24 07:19:45;;;;;;;;;;;25.70;56.70;;;;;;5066714;28;19931;-61
2022/08/24 07:22:12;;;;;;;;;;;25.70;57.00;;;;;;5106174;28;20389;-61
2022/08/24 07:24:38;;;;;;;;;;;25.70;57.20;;;;;;5103044;28;19935;-60
2022/08/24 07:27:03;;;;;;;;;;;25.80;56.70;;;;;;5105637;28;19942;-59
2022/08/24 07:29:30;;;;;;;;;;;26.00;56.30;;;;;;5099967;28;20002;-60
2022/08/24 07:31:56;;;;;;;;;;;26.00;56.50;;;;;;5105461;28;19912;-60
2022/08/24 07:34:21;;;;;;;;;;;26.00;56.60;;;;;;5082989;28;19908;-59
2022/08/24 07:36:49;;;;;;;;;;;25.90;56.80;;;;;;5090880;28;19916;-61
2022/08/24 07:39:15;;;;;;;;;;;26.00;56.70;;;;;;5104926;28;20007;-59
2022/08/24 07:41:41;;;;;;;;;;;26.00;56.80;;;;;;5093650;28;20002;-60
2022/08/24 07:44:06;;;;;;;;;;;25.90;57.10;;;;;;5094784;28;20392;-60
2022/08/24 07:46:32;;;;;;;;;;;25.80;57.20;;;;;;5075630;28;20001;-59
2022/08/24 07:48:57;;;;;;;;;;;25.70;57.50;;;;;;5091998;28;19927;-59
2022/08/24 07:51:23;;;;;;;;;;;25.70;57.60;;;;;;5108658;27;20329;-60
2022/08/24 07:53:48;;;;;;;;;;;25.70;57.40;;;;;;5093316;28;20405;-60
2022/08/24 07:56:14;;;;;;;;;;;25.90;57.10;;;;;;5107271;28;19916;-59
2022/08/24 07:58:39;;;;;;;;;;;26.00;57.20;;;;;;5091944;28;19930;-60
2022/08/24 08:01:06;;;;;;;;;;;26.10;57.00;;;;;;5107780;28;19916;-61
2022/08/24 08:03:32;;;;;;;;;;;26.20;56.70;;;;;;5110578;28;19911;-59
2022/08/24 08:05:59;;;;;;;;;;;26.30;56.40;;;;;;5093976;28;19916;-61
2022/08/24 08:08:25;;;;;;;;;;;26.40;56.00;;;;;;5107770;28;19977;-60
2022/08/24 08:10:50;;;;;;;;;;;26.30;56.10;;;;;;5084463;28;20107;-60
2022/08/24 08:13:16;;;;;;;;;;;26.20;57.00;;;;;;5105011;28;20260;-60
2022/08/24 08:15:41;;;;;;;;;;;26.00;56.70;;;;;;5089517;28;19920;-58
2022/08/24 08:18:07;;;;;;;;;;;25.90;57.20;;;;;;5074124;28;19912;-61
2022/08/24 08:20:32;;;;;;;;;;;25.80;57.30;;;;;;5056489;28;19919;-61
2022/08/24 08:25:46;;;;;;;;;;;25.70;57.50;;;;;;5089143;28;19991;-60
2022/08/24 08:28:12;;;;;;;;;;;25.80;57.50;;;;;;5092858;28;19912;-60
2022/08/24 08:30:37;;;;;;;;;;;25.90;57.00;;;;;;5093416;28;19931;-59
2022/08/24 08:33:02;;;;;;;;;;;25.90;57.20;;;;;;5083785;28;20296;-60
2022/08/24 08:35:28;;;;;;;;;;;25.90;57.30;;;;;;5085495;28;20418;-60
2022/08/24 08:37:56;;;;;;;;;;;25.90;57.10;;;;;;5088324;28;20390;-60
2022/08/24 08:40:34;;;;;;;;;;;26.00;56.60;;;;;;5077198;28;20007;-60
2022/08/24 08:43:00;;;;;;;;;;;26.10;56.00;;;;;;5085130;28;19923;-60
2022/08/24 08:45:26;;;;;;;;;;;26.00;56.10;;;;;;5078996;28;19916;-60
2022/08/24 08:47:58;;;;;;;;;;;26.00;56.80;;;;;;5092814;28;20015;-60
2022/08/24 08:50:27;;;;;;;;;;;26.10;56.00;;;;;;5070566;28;19912;-59
2022/08/24 08:53:11;;;;;;;;;;;26.20;55.80;;;;;;5089739;28;20295;-59
2022/08/24 08:55:57;;;;;;;;;;;26.30;55.30;;;;;;5071172;28;19916;-60
2022/08/24 08:58:41;;;;;;;;;;;26.40;54.80;;;;;;5071193;28;19921;-60
2022/08/24 09:01:25;;;;;;;;;;;26.50;54.60;;;;;;5082903;28;19933;-60
2022/08/24 09:03:51;;;;;;;;;;;26.50;54.60;;;;;;5090127;28;19912;-58
2022/08/24 09:06:28;;;;;;;;;;;26.50;54.40;;;;;;5086884;28;20399;-61
2022/08/24 09:08:59;;;;;;;;;;;26.50;54.50;;;;;;5087876;28;19920;-60
2022/08/24 09:11:47;;;;;;;;;;;26.70;54.50;;;;;;5089383;28;20330;-59
2022/08/24 09:14:21;;;;;;;;;;;26.70;54.50;;;;;;5096254;28;19923;-59
2022/08/24 09:16:49;;;;;;;;;;;26.80;54.20;;;;;;5110581;28;19938;-60
2022/08/24 09:19:33;;;;;;;;;;;26.80;54.10;;;;;;5108939;28;20332;-60
2022/08/24 09:22:02;;;;;;;;;;;26.80;54.10;;;;;;5105149;28;20367;-58
2022/08/24 09:24:34;;;;;;;;;;;26.90;54.00;;;;;;5091460;28;20024;-60
2022/08/24 09:27:18;;;;;;;;;;;26.90;53.90;;;;;;5105621;28;20333;-59
2022/08/24 09:29:58;;;;;;;;;;;26.90;53.80;;;;;;5105190;28;19932;-59
2022/08/24 09:32:23;;;;;;;;;;;27.00;53.60;;;;;;5086827;28;19919;-59
2022/08/24 09:34:55;;;;;;;;;;;27.00;53.50;;;;;;5106250;28;19923;-59
2022/08/24 09:37:39;;;;;;;;;;;27.00;53.20;;;;;;5083706;28;19919;-60
2022/08/24 09:40:16;;;;;;;;;;;27.10;52.40;;;;;;5084479;28;19969;-61
2022/08/24 09:43:00;;;;;;;;;;;27.00;52.50;;;;;;5084702;28;20367;-60
2022/08/24 09:45:42;;;;;;;;;;;26.90;52.20;;;;;;5111248;28;19959;-60
2022/08/24 09:48:23;;;;;;;;;;;26.90;52.60;;;;;;5109425;28;20144;-61
2022/08/24 09:50:49;;;;;;;;;;;27.00;51.50;;;;;;5089686;28;19958;-61
2022/08/24 09:53:25;;;;;;;;;;;26.90;51.60;;;;;;5110426;28;19915;-60
2022/08/24 09:56:20;;;;;;;;;;;27.00;51.60;;;;;;5090418;28;19920;-61
2022/08/24 09:59:04;;;;;;;;;;;27.00;51.60;;;;;;5083231;28;19919;-60
2022/08/24 10:01:59;;;;;;;;;;;27.10;51.50;;;;;;5105663;27;19911;-60
2022/08/24 10:04:30;;;;;;;;;;;27.20;51.60;;;;;;5074060;28;19923;-59
2022/08/24 10:07:00;;;;;;;;;;;27.30;51.30;;;;;;5110932;28;19920;-59
2022/08/24 10:09:32;;;;;;;;;;;27.20;51.50;;;;;;5090969;28;20314;-60
2022/08/24 10:11:57;;;;;;;;;;;27.30;51.20;;;;;;5108289;28;20091;-61
2022/08/24 10:14:42;;;;;;;;;;;27.40;51.30;;;;;;5094250;28;19924;-60
2022/08/24 10:17:10;;;;;;;;;;;27.50;51.00;;;;;;5088102;28;19912;-59
2022/08/24 10:19:44;;;;;;;;;;;27.60;50.30;;;;;;5071777;28;19912;-59
2022/08/24 10:22:16;;;;;;;;;;;27.60;49.90;;;;;;5066743;28;19920;-61
2022/08/24 10:25:00;;;;;;;;;;;27.70;49.70;;;;;;5082630;28;19951;-59
2022/08/24 10:27:40;;;;;;;;;;;27.70;50.00;;;;;;5083573;28;19967;-59
2022/08/24 10:30:15;;;;;;;;;;;27.80;49.70;;;;;;5070853;28;20007;-62
2022/08/24 10:33:02;;;;;;;;;;;27.80;49.10;;;;;;5087541;28;19916;-59
2022/08/24 10:35:33;;;;;;;;;;;27.90;49.10;;;;;;5046367;28;19920;-59
2022/08/24 10:41:01;;;;;;;;;;;27.90;48.50;;;;;;5091822;28;20371;-60
2022/08/24 10:43:43;;;;;;;;;;;27.70;48.40;;;;;;5085363;28;19916;-60
2022/08/24 10:46:27;;;;;;;;;;;27.70;48.20;;;;;;5059792;28;20380;-61
2022/08/24 10:49:16;;;;;;;;;;;27.70;49.00;;;;;;5081134;28;19965;-60
2022/08/24 10:51:49;;;;;;;;;;;27.80;49.10;;;;;;5068105;28;20280;-61
2022/08/24 10:54:14;;;;;;;;;;;27.90;48.90;;;;;;5071565;28;19939;-59
2022/08/24 10:56:40;;;;;;;;;;;27.90;48.70;;;;;;5067762;28;20361;-60
2022/08/24 10:59:24;;;;;;;;;;;28.00;48.00;;;;;;5088635;28;19919;-59
2022/08/24 11:02:08;;;;;;;;;;;28.00;47.90;;;;;;5086216;28;19961;-59
2022/08/24 11:04:34;;;;;;;;;;;27.90;48.00;;;;;;5090548;28;20354;-60
2022/08/24 11:07:15;;;;;;;;;;;27.90;48.40;;;;;;5084296;28;20015;-60
2022/08/24 11:10:00;;;;;;;;;;;28.00;48.00;;;;;;5088041;28;19957;-59
2022/08/24 11:12:27;;;;;;;;;;;28.10;48.30;;;;;;5072603;28;19924;-60
2022/08/24 11:14:53;;;;;;;;;;;28.20;48.10;;;;;;5093478;28;20006;-60
2022/08/24 11:17:20;;;;;;;;;;;28.20;48.00;;;;;;5088367;28;19937;-60
2022/08/24 11:19:45;;;;;;;;;;;28.40;47.80;;;;;;5073964;28;19920;-60
2022/08/24 11:22:40;;;;;;;;;;;28.40;47.30;;;;;;5091423;28;20609;-60
2022/08/24 11:25:05;;;;;;;;;;;28.40;47.20;;;;;;5032840;28;19913;-61
2022/08/24 11:27:35;;;;;;;;;;;28.50;47.50;;;;;;5074280;28;20295;-60
2022/08/24 11:30:05;;;;;;;;;;;28.40;47.70;;;;;;5058492;28;20202;-59
2022/08/24 11:32:42;;;;;;;;;;;28.40;47.60;;;;;;5066354;28;19961;-62
2022/08/24 11:35:13;;;;;;;;;;;28.50;47.30;;;;;;5075610;28;19912;-59
2022/08/24 11:37:39;;;;;;;;;;;28.50;47.20;;;;;;5074766;28;19916;-60
2022/08/24 11:40:05;;;;;;;;;;;28.60;46.90;;;;;;5070544;28;19923;-60
2022/08/24 11:42:52;;;;;;;;;;;28.60;46.70;;;;;;5075027;28;19961;-61
2022/08/24 11:45:27;;;;;;;;;;;28.50;46.90;;;;;;5076522;28;19912;-61
2022/08/24 11:48:08;;;;;;;;;;;28.40;46.90;;;;;;5088821;28;19923;-60
2022/08/24 11:50:35;;;;;;;;;;;28.40;47.20;;;;;;5086574;28;19916;-59
2022/08/24 11:53:07;;;;;;;;;;;28.50;47.50;;;;;;5059051;28;19912;-61
2022/08/24 11:55:35;;;;;;;;;;;28.50;46.50;;;;;;5093780;28;19990;-61
2022/08/24 11:58:06;;;;;;;;;;;28.60;46.50;;;;;;5074158;28;19912;-59
2022/08/24 12:00:41;;;;;;;;;;;28.70;46.40;;;;;;5089660;28;19913;-60
2022/08/24 12:03:10;;;;;;;;;;;28.60;46.70;;;;;;5072226;28;19920;-60
2022/08/24 12:05:36;;;;;;;;;;;28.60;46.80;;;;;;5093807;28;19908;-60
2022/08/24 12:08:40;;;;;;;;;;;28.60;47.10;;;;;;5090308;28;20417;-60
2022/08/24 12:11:09;;;;;;;;;;;28.70;46.30;;;;;;5008338;28;20420;-59
2022/08/24 12:13:37;;;;;;;;;;;28.80;46.60;;;;;;5015332;28;19921;-60
2022/08/24 12:16:22;;;;;;;;;;;28.70;46.20;;;;;;5071490;28;20325;-60
2022/08/24 12:18:50;;;;;;;;;;;28.80;45.80;;;;;;5085247;28;19939;-60
2022/08/24 12:21:17;;;;;;;;;;;28.90;45.60;;;;;;5093354;28;19916;-59
2022/08/24 12:23:43;;;;;;;;;;;28.90;45.00;;;;;;5113257;28;19912;-60
2022/08/24 12:26:11;;;;;;;;;;;28.90;45.60;;;;;;5111639;28;19919;-61
2022/08/24 12:28:41;;;;;;;;;;;28.90;45.20;;;;;;5094171;28;20291;-60
2022/08/24 12:31:18;;;;;;;;;;;28.90;45.00;;;;;;5112527;28;19991;-60
2022/08/24 12:33:44;;;;;;;;;;;28.90;45.00;;;;;;5113914;28;19923;-60
2022/08/24 12:36:16;;;;;;;;;;;29.00;44.00;;;;;;5093232;28;20368;-61
2022/08/24 12:38:46;;;;;;;;;;;29.10;44.40;;;;;;5091305;28;19912;-61
2022/08/24 12:41:12;;;;;;;;;;;29.00;44.40;;;;;;5088915;28;20396;-60
2022/08/24 12:43:49;;;;;;;;;;;29.00;44.10;;;;;;5114088;28;19918;-61
2022/08/24 12:46:16;;;;;;;;;;;29.00;44.40;;;;;;5091947;28;19972;-59
2022/08/24 12:48:44;;;;;;;;;;;29.10;44.10;;;;;;5094245;28;19916;-61
2022/08/24 12:51:21;;;;;;;;;;;29.10;43.50;;;;;;5073204;28;19927;-61
2022/08/24 12:54:05;;;;;;;;;;;29.10;43.70;;;;;;5106360;28;19954;-60
2022/08/24 12:56:33;;;;;;;;;;;29.20;43.50;;;;;;5106366;28;19920;-60
2022/08/24 12:59:04;;;;;;;;;;;29.30;42.70;;;;;;5090300;28;19923;-60
2022/08/24 13:01:32;;;;;;;;;;;29.30;42.20;;;;;;5078521;28;20371;-61
2022/08/24 13:04:02;;;;;;;;;;;29.30;42.10;;;;;;5095962;28;20320;-59
2022/08/24 13:06:35;;;;;;;;;;;29.30;42.20;;;;;;5111396;28;19912;-61
2022/08/24 13:09:07;;;;;;;;;;;29.30;42.40;;;;;;5105533;28;19915;-61
2022/08/24 13:11:33;;;;;;;;;;;29.30;42.50;;;;;;5095068;28;19966;-61
2022/08/24 13:14:11;;;;;;;;;;;29.40;42.40;;;;;;5097615;28;19987;-59
2022/08/24 13:16:55;;;;;;;;;;;29.40;42.10;;;;;;5102736;28;19912;-60
2022/08/24 13:19:30;;;;;;;;;;;29.40;42.20;;;;;;5113683;28;19925;-60
2022/08/24 13:21:57;;;;;;;;;;;29.40;43.10;;;;;;5113611;28;19957;-60
2022/08/24 13:24:29;;;;;;;;;;;29.40;42.10;;;;;;5096113;28;19990;-60
2022/08/24 13:26:55;;;;;;;;;;;29.40;42.00;;;;;;5112858;28;19912;-60
2022/08/24 13:29:20;;;;;;;;;;;29.40;42.00;;;;;;5105573;28;19920;-59
2022/08/24 13:31:49;;;;;;;;;;;29.60;41.60;;;;;;5102599;28;19908;-58
2022/08/24 13:34:16;;;;;;;;;;;29.70;41.50;;;;;;5101397;28;19952;-61
2022/08/24 13:36:41;;;;;;;;;;;29.60;41.80;;;;;;5112277;28;19919;-60
2022/08/24 13:39:13;;;;;;;;;;;29.50;42.20;;;;;;5107617;28;19991;-60
2022/08/24 13:41:52;;;;;;;;;;;29.50;42.30;;;;;;5112469;28;19983;-60
2022/08/24 13:44:37;;;;;;;;;;;29.70;41.80;;;;;;5078147;28;20024;-60
2022/08/24 13:47:11;;;;;;;;;;;29.70;41.70;;;;;;5112259;28;19965;-59
2022/08/24 13:49:50;;;;;;;;;;;29.70;42.10;;;;;;5091371;28;19927;-60
2022/08/24 13:52:23;;;;;;;;;;;29.60;42.20;;;;;;5108781;27;20368;-60
2022/08/24 13:54:53;;;;;;;;;;;29.60;42.20;;;;;;5112279;28;19937;-61
2022/08/24 13:57:24;;;;;;;;;;;29.60;42.00;;;;;;5094691;28;19911;-60
2022/08/24 14:00:08;;;;;;;;;;;29.60;41.90;;;;;;5094162;28;20295;-60
2022/08/24 14:02:41;;;;;;;;;;;29.60;41.60;;;;;;5111984;28;20360;-61
2022/08/24 14:05:09;;;;;;;;;;;29.60;41.80;;;;;;5092341;28;19918;-61
2022/08/24 14:07:56;;;;;;;;;;;29.60;41.70;;;;;;5110551;28;20387;-59
2022/08/24 14:10:40;;;;;;;;;;;29.60;41.20;;;;;;5091811;28;19935;-61
2022/08/24 14:13:15;;;;;;;;;;;29.60;41.20;;;;;;5111407;28;19908;-61
2022/08/24 14:17:50;;;;;;;;;;;29.60;41.20;;;;;;5093504;28;20012;-61
2022/08/24 14:18:44;;;;;;;;;;;29.70;41.20;;;;;;5100775;27;19965;-61
2022/08/24 14:21:09;;;;;;;;;;;29.70;40.90;;;;;;5085575;28;19926;-61
2022/08/24 14:23:46;;;;;;;;;;;29.70;40.80;;;;;;5093563;28;19912;-61
2022/08/24 14:26:42;;;;;;;;;;;29.80;40.60;;;;;;5111827;28;19908;-61
2022/08/24 14:29:19;;;;;;;;;;;29.70;41.10;;;;;;5099153;28;19922;-62
2022/08/24 14:31:53;;;;;;;;;;;29.80;40.60;;;;;;5111514;28;19916;-61
2022/08/24 14:34:38;;;;;;;;;;;29.80;40.30;;;;;;5111896;28;20030;-62
2022/08/24 14:37:05;;;;;;;;;;;29.80;40.30;;;;;;5110450;28;20329;-61
2022/08/24 14:39:49;;;;;;;;;;;29.80;40.30;;;;;;5086732;28;20413;-61
2022/08/24 14:42:23;;;;;;;;;;;29.80;40.30;;;;;;5108918;28;19915;-62